Time;durP1;ratioP1;P1;durP2;ratioP2;P2;SDS_P1;SDS_P2;PMS_P1;PMS_P2;Temp;Humidity;BMP_temperature;BMP_pressure;BME280_temperature;BME280_humidity;BME280_pressure;Samples;Min_cycle;Max_cycle;Signal;HPM_P1;HPM_P2
2021/07/20 00:01:47;;;;;;;8.73;5.57;;;;;;;16.16;nan;100902.03;4986197;28;20080;-79
2021/07/20 00:04:12;;;;;;;7.80;5.25;;;;;;;16.08;nan;100902.19;4973844;28;20046;-78
2021/07/20 00:06:38;;;;;;;7.15;4.85;;;;;;;15.97;nan;100906.91;5012452;28;20034;-78
2021/07/20 00:09:06;;;;;;;10.05;5.80;;;;;;;15.78;nan;100904.66;4996750;28;20034;-79
2021/07/20 00:11:31;;;;;;;7.93;5.45;;;;;;;15.69;nan;100901.28;5001006;28;20399;-79
2021/07/20 00:13:57;;;;;;;7.90;5.07;;;;;;;15.59;nan;100905.91;4997795;28;20049;-79
2021/07/20 00:16:22;;;;;;;8.02;5.55;;;;;;;15.51;nan;100902.50;4997375;28;20045;-79
2021/07/20 00:18:47;;;;;;;6.95;5.15;;;;;;;15.43;nan;100901.81;4998745;28;20034;-78
2021/07/20 00:21:13;;;;;;;9.57;5.60;;;;;;;15.32;nan;100910.88;4996943;28;20057;-79
2021/07/20 00:23:39;;;;;;;10.27;5.75;;;;;;;15.18;nan;100912.94;4998919;28;20038;-79
2021/07/20 00:26:06;;;;;;;9.30;5.00;;;;;;;15.04;nan;100905.22;5013475;28;20036;-79
2021/07/20 00:28:32;;;;;;;9.43;5.28;;;;;;;14.97;nan;100908.91;5009228;28;20042;-79
2021/07/20 00:30:57;;;;;;;8.73;4.90;;;;;;;14.96;nan;100907.16;4999148;28;20060;-78
2021/07/20 00:33:22;;;;;;;8.15;5.47;;;;;;;14.95;nan;100908.03;4995867;28;20073;-78
2021/07/20 00:35:48;;;;;;;8.60;5.40;;;;;;;15.00;nan;100902.66;4998174;28;20061;-79
2021/07/20 00:38:15;;;;;;;7.88;5.05;;;;;;;15.02;nan;100904.38;5015195;28;20030;-78
2021/07/20 00:40:47;;;;;;;7.35;5.32;;;;;;;15.01;nan;100899.06;5015873;28;20030;-78
2021/07/20 00:43:12;;;;;;;10.45;5.45;;;;;;;14.94;nan;100903.63;5014700;28;20038;-78
2021/07/20 00:45:39;;;;;;;9.27;5.45;;;;;;;14.90;nan;100897.47;4996677;28;20030;-79
2021/07/20 00:48:05;;;;;;;7.95;5.88;;;;;;;14.85;nan;100893.16;4996647;28;20034;-78
2021/07/20 00:50:39;;;;;;;10.73;5.85;;;;;;;14.82;nan;100894.09;5011889;28;20463;-79
2021/07/20 00:53:05;;;;;;;8.73;5.18;;;;;;;14.82;nan;100904.72;4996145;28;20034;-78
2021/07/20 00:55:36;;;;;;;8.50;5.00;;;;;;;14.80;nan;100903.91;4997026;28;20030;-79
2021/07/20 00:58:04;;;;;;;8.52;4.90;;;;;;;14.79;nan;100899.47;5011928;28;20037;-79
2021/07/20 01:00:30;;;;;;;10.00;6.10;;;;;;;14.82;nan;100904.72;4981676;28;20396;-78
2021/07/20 01:02:56;;;;;;;10.73;5.78;;;;;;;14.88;nan;100898.41;4995488;28;20034;-79
2021/07/20 01:05:26;;;;;;;7.93;5.15;;;;;;;14.85;nan;100899.34;5015996;28;20034;-78
2021/07/20 01:07:55;;;;;;;9.77;5.72;;;;;;;14.85;nan;100903.78;4995989;28;20038;-79
2021/07/20 01:10:23;;;;;;;7.90;5.07;;;;;;;14.72;nan;100897.81;4998416;28;20407;-78
2021/07/20 01:12:49;;;;;;;9.73;6.57;;;;;;;14.68;nan;100898.78;4994796;28;20064;-78
2021/07/20 01:15:20;;;;;;;9.48;5.63;;;;;;;14.79;nan;100895.94;5003263;28;20041;-78
2021/07/20 01:17:46;;;;;;;9.75;6.10;;;;;;;14.81;nan;100897.66;5007328;28;20036;-79
2021/07/20 01:20:15;;;;;;;8.45;6.22;;;;;;;14.78;nan;100897.72;4996551;28;20092;-78
2021/07/20 01:22:51;;;;;;;7.63;5.68;;;;;;;14.72;nan;100896.94;5006677;28;20031;-78
2021/07/20 01:25:18;;;;;;;11.02;6.00;;;;;;;14.76;nan;100896.88;5003322;28;20413;-78
2021/07/20 01:27:51;;;;;;;8.43;5.70;;;;;;;14.74;nan;100887.16;4992603;28;20021;-78
2021/07/20 01:30:17;;;;;;;9.68;6.30;;;;;;;14.73;nan;100883.66;5006251;28;20097;-78
2021/07/20 01:32:44;;;;;;;11.32;6.40;;;;;;;14.65;nan;100890.88;4996778;28;20121;-78
2021/07/20 01:35:12;;;;;;;10.07;5.82;;;;;;;14.56;nan;100891.00;5004825;28;20030;-78
2021/07/20 01:37:42;;;;;;;7.40;5.50;;;;;;;14.61;nan;100886.50;5002369;28;20111;-78
2021/07/20 01:40:11;;;;;;;10.98;6.45;;;;;;;14.61;nan;100882.06;4985380;28;20057;-78
2021/07/20 01:42:43;;;;;;;9.52;6.38;;;;;;;14.69;nan;100887.25;4974376;28;20034;-78
2021/07/20 01:45:12;;;;;;;;;;;;;;;14.64;nan;100889.97;5006797;28;20030;-78
2021/07/20 01:47:41;;;;;;;7.72;5.43;;;;;;;14.73;nan;100888.09;5014574;28;19963;-78
2021/07/20 01:50:09;;;;;;;8.05;5.60;;;;;;;14.80;nan;100885.28;5005106;28;20094;-78
2021/07/20 01:52:34;;;;;;;8.48;5.88;;;;;;;14.76;nan;100886.25;4995216;28;20100;-78
2021/07/20 01:55:03;;;;;;;9.02;5.85;;;;;;;14.79;nan;100890.63;4986620;28;20468;-78
2021/07/20 01:57:30;;;;;;;9.05;5.85;;;;;;;14.84;nan;100892.28;5005360;28;20031;-78
2021/07/20 02:00:08;;;;;;;8.65;5.88;;;;;;;14.89;nan;100885.13;4991552;28;20034;-78
2021/07/20 02:03:32;;;;;;;12.30;7.03;;;;;;;14.89;nan;100884.25;5006142;28;20038;-78
2021/07/20 02:09:18;;;;;;;10.55;5.97;;;;;;;15.09;nan;100887.41;5012213;28;20038;-78
2021/07/20 02:11:46;;;;;;;8.60;5.97;;;;;;;15.11;nan;100888.22;4994156;28;20045;-78
2021/07/20 02:14:29;;;;;;;;;;;;;;;15.10;nan;100891.81;5009835;28;20036;-78
2021/07/20 02:17:13;;;;;;;9.70;6.22;;;;;;;15.18;nan;100889.00;4980077;28;19921;-78
2021/07/20 02:19:52;;;;;;;9.90;5.82;;;;;;;15.28;nan;100898.56;4997096;28;20030;-78
2021/07/20 02:22:44;;;;;;;8.80;6.10;;;;;;;15.33;nan;100904.66;5012573;28;20026;-78
2021/07/20 02:25:12;;;;;;;9.20;6.20;;;;;;;15.28;nan;100900.34;4997056;28;20030;-78
2021/07/20 02:27:39;;;;;;;10.07;6.63;;;;;;;15.32;nan;100897.56;4996490;28;20037;-79
2021/07/20 02:30:13;;;;;;;9.40;6.10;;;;;;;15.43;nan;100899.13;5013397;28;20057;-79
2021/07/20 02:32:44;;;;;;;7.90;5.82;;;;;;;15.41;nan;100899.19;4996636;28;20042;-78
2021/07/20 02:35:18;;;;;;;;;;;;;;;15.41;nan;100899.19;4993645;28;20030;-78
2021/07/20 02:37:45;;;;;;;13.02;6.03;;;;;;;15.50;nan;100893.66;4992593;28;19914;-78
2021/07/20 02:40:13;;;;;;;9.13;5.60;;;;;;;15.55;nan;100889.13;4993518;28;20034;-78
2021/07/20 02:42:40;;;;;;;12.98;7.03;;;;;;;15.46;nan;100899.09;4996819;28;20037;-78
2021/07/20 02:45:08;;;;;;;12.48;6.20;;;;;;;15.47;nan;100898.19;5011206;28;20033;-78
2021/07/20 02:47:35;;;;;;;8.75;6.43;;;;;;;15.54;nan;100897.16;4994623;28;20045;-78
2021/07/20 02:50:11;;;;;;;11.73;6.28;;;;;;;15.60;nan;100898.81;5011996;28;20038;-78
2021/07/20 02:52:45;;;;;;;10.35;6.22;;;;;;;15.63;nan;100899.63;5011857;28;20030;-78
2021/07/20 02:55:18;;;;;;;10.27;6.22;;;;;;;15.54;nan;100898.03;4995879;28;20046;-78
2021/07/20 02:57:48;;;;;;;15.10;6.15;;;;;;;15.62;nan;100903.19;5004999;28;20093;-78
2021/07/20 03:00:14;;;;;;;10.82;5.90;;;;;;;15.63;nan;100901.41;4996177;28;20064;-78
2021/07/20 03:02:51;;;;;;;8.45;5.45;;;;;;;15.61;nan;100912.06;4991300;28;20123;-78
2021/07/20 03:05:17;;;;;;;8.95;5.88;;;;;;;15.61;nan;100901.41;5002017;28;20030;-78
2021/07/20 03:07:53;;;;;;;8.02;6.00;;;;;;;15.58;nan;100890.84;5014483;28;20034;-78
2021/07/20 03:10:22;;;;;;;10.35;6.20;;;;;;;15.67;nan;100896.00;4995051;28;20026;-78
2021/07/20 03:12:49;;;;;;;9.73;5.68;;;;;;;15.79;nan;100894.88;4980543;28;20053;-78
2021/07/20 03:15:16;;;;;;;8.25;5.90;;;;;;;15.78;nan;100901.97;4998241;28;20044;-78
2021/07/20 03:18:01;;;;;;;8.45;6.18;;;;;;;15.74;nan;100902.94;4999308;28;20025;-78
2021/07/20 03:20:28;;;;;;;10.10;6.25;;;;;;;15.74;nan;100902.94;5016413;28;20408;-78
2021/07/20 03:22:55;;;;;;;10.48;6.35;;;;;;;15.71;nan;100895.03;5000583;28;20120;-78
2021/07/20 03:25:23;;;;;;;10.48;6.22;;;;;;;15.65;nan;100892.47;5015154;28;20038;-78
2021/07/20 03:27:49;;;;;;;10.73;7.25;;;;;;;15.68;nan;100891.53;4982332;28;20566;-78
2021/07/20 03:30:20;;;;;;;9.90;7.13;;;;;;;15.74;nan;100892.31;4998663;28;20472;-78
2021/07/20 03:32:48;;;;;;;8.40;6.13;;;;;;;15.82;nan;100897.47;4996125;28;20041;-78
2021/07/20 03:35:27;;;;;;;11.25;7.22;;;;;;;15.87;nan;100892.03;4976028;28;20037;-78
2021/07/20 03:37:54;;;;;;;10.02;6.97;;;;;;;15.91;nan;100883.09;5014475;28;20030;-78
2021/07/20 03:40:20;;;;;;;9.57;6.65;;;;;;;15.96;nan;100890.06;4998746;28;20026;-78
2021/07/20 03:42:48;;;;;;;9.30;6.75;;;;;;;15.96;nan;100899.84;4997958;28;20030;-78
2021/07/20 03:45:18;;;;;;;11.82;7.13;;;;;;;15.92;nan;100892.81;4998869;28;20030;-78
2021/07/20 03:47:47;;;;;;;9.57;6.90;;;;;;;15.95;nan;100895.41;5012281;28;20045;-78
2021/07/20 03:50:29;;;;;;;;;;;;;;;15.98;nan;100887.34;4989476;28;20034;-78
2021/07/20 03:52:58;;;;;;;11.70;6.72;;;;;;;16.09;nan;100895.97;4977081;28;20392;-78
2021/07/20 03:55:24;;;;;;;8.90;6.82;;;;;;;16.14;nan;100893.22;4991939;28;20034;-78
2021/07/20 03:57:50;;;;;;;9.10;6.82;;;;;;;16.14;nan;100895.88;4996621;28;20080;-78
2021/07/20 04:00:16;;;;;;;9.90;6.72;;;;;;;16.19;nan;100894.84;4993258;28;20038;-78
2021/07/20 04:02:50;;;;;;;10.85;6.75;;;;;;;16.30;nan;100889.28;5012547;28;20046;-78
2021/07/20 04:05:28;;;;;;;11.25;7.53;;;;;;;16.34;nan;100892.72;5007958;28;20591;-78
2021/07/20 04:07:57;;;;;;;7.75;6.50;;;;;;;16.46;nan;100883.56;4995848;28;20064;-78
2021/07/20 04:10:34;;;;;;;10.93;7.38;;;;;;;16.48;nan;100893.28;4996405;28;20026;-78
2021/07/20 04:13:19;;;;;;;9.10;7.00;;;;;;;16.57;nan;100898.38;5006544;28;20076;-78
2021/07/20 04:16:00;;;;;;;10.05;7.18;;;;;;;16.59;nan;100891.22;5010219;28;20049;-78
2021/07/20 04:18:28;;;;;;;8.88;6.57;;;;;;;16.67;nan;100890.16;4992792;28;20587;-77
2021/07/20 04:20:55;;;;;;;8.52;6.63;;;;;;;16.69;nan;100894.53;4990436;28;20066;-76
2021/07/20 04:23:23;;;;;;;9.52;6.97;;;;;;;16.70;nan;100898.06;5011445;28;20038;-77
2021/07/20 04:26:02;;;;;;;10.43;7.35;;;;;;;16.59;nan;100899.22;4991037;28;20032;-77
2021/07/20 04:28:34;;;;;;;12.30;7.70;;;;;;;16.48;nan;100895.03;4984263;28;20050;-77
2021/07/20 04:31:02;;;;;;;9.85;6.95;;;;;;;16.48;nan;100890.63;4980896;28;20026;-77
2021/07/20 04:33:32;;;;;;;9.93;7.60;;;;;;;16.52;nan;100886.06;5006287;28;20114;-78
2021/07/20 04:36:20;;;;;;;13.27;7.55;;;;;;;16.53;nan;100893.13;4995260;28;20053;-78
2021/07/20 04:38:48;;;;;;;9.77;6.93;;;;;;;16.62;nan;100888.47;4995482;28;20029;-77
2021/07/20 04:41:18;;;;;;;11.15;6.88;;;;;;;16.73;nan;100880.19;4978600;28;20026;-78
2021/07/20 04:43:46;;;;;;;9.07;7.32;;;;;;;16.82;nan;100884.44;4998244;28;20026;-77
2021/07/20 04:46:15;;;;;;;9.40;6.55;;;;;;;16.86;nan;100888.78;4995905;28;20315;-77
2021/07/20 04:48:41;;;;;;;12.77;8.00;;;;;;;16.90;nan;100893.13;4999755;28;20492;-78
2021/07/20 04:51:13;;;;;;;9.45;7.57;;;;;;;16.83;nan;100896.88;4981647;28;20139;-78
2021/07/20 04:53:40;;;;;;;9.63;7.78;;;;;;;16.84;nan;100901.25;5018211;28;20033;-78
2021/07/20 04:56:06;;;;;;;12.13;7.68;;;;;;;16.97;nan;100905.34;4992787;28;20042;-78
2021/07/20 04:58:34;;;;;;;14.65;7.90;;;;;;;16.97;nan;100910.69;5000820;28;20167;-78
2021/07/20 05:01:02;;;;;;;12.52;6.95;;;;;;;16.93;nan;100908.16;4992272;28;20038;-78
2021/07/20 05:03:31;;;;;;;9.73;7.50;;;;;;;16.92;nan;100906.41;5000745;28;20026;-78
2021/07/20 05:05:58;;;;;;;10.45;7.53;;;;;;;16.90;nan;100919.78;5013686;28;20037;-77
2021/07/20 05:08:31;;;;;;;10.38;7.63;;;;;;;16.77;nan;100911.22;4992058;28;20098;-78
2021/07/20 05:10:59;;;;;;;10.98;7.22;;;;;;;16.86;nan;100910.09;4973507;28;20035;-78
2021/07/20 05:13:29;;;;;;;10.27;7.68;;;;;;;17.01;nan;100919.50;4991392;28;20037;-78
2021/07/20 05:15:58;;;;;;;12.73;8.05;;;;;;;17.09;nan;100917.50;4978615;28;20039;-78
2021/07/20 05:18:34;;;;;;;10.90;8.13;;;;;;;17.17;nan;100919.97;4993908;28;20026;-78
2021/07/20 05:21:03;;;;;;;10.63;7.53;;;;;;;17.24;nan;100929.56;4999289;28;20041;-78
2021/07/20 05:23:30;;;;;;;9.88;7.63;;;;;;;17.35;nan;100927.47;4980404;28;20034;-78
2021/07/20 05:26:00;;;;;;;11.50;8.48;;;;;;;17.37;nan;100930.97;4998944;28;20036;-78
2021/07/20 05:28:30;;;;;;;10.30;8.05;;;;;;;17.39;nan;100930.91;4991155;28;20041;-78
2021/07/20 05:30:59;;;;;;;12.47;8.23;;;;;;;17.35;nan;100930.13;4999813;28;20058;-78
2021/07/20 05:33:26;;;;;;;10.27;7.60;;;;;;;17.40;nan;100935.34;4979738;28;20056;-78
2021/07/20 05:36:03;;;;;;;11.98;8.05;;;;;;;17.55;nan;100939.34;4998703;28;20033;-78
2021/07/20 05:38:30;;;;;;;12.10;8.30;;;;;;;17.62;nan;100938.25;5013443;28;20117;-78
2021/07/20 05:41:16;;;;;;;14.00;7.80;;;;;;;17.62;nan;100935.59;5014455;28;20105;-78
2021/07/20 05:43:43;;;;;;;11.02;7.75;;;;;;;17.67;nan;100931.88;5000176;28;20025;-78
2021/07/20 05:46:11;;;;;;;10.18;7.32;;;;;;;17.71;nan;100929.97;4997711;28;20106;-78
2021/07/20 05:48:37;;;;;;;11.63;8.10;;;;;;;17.73;nan;100930.81;5000248;28;20027;-78
2021/07/20 05:51:07;;;;;;;10.20;7.40;;;;;;;17.78;nan;100938.69;5014676;28;20101;-78
2021/07/20 05:53:38;;;;;;;11.03;8.03;;;;;;;17.74;nan;100936.13;5018332;28;20072;-78
2021/07/20 05:56:28;;;;;;;13.60;7.82;;;;;;;17.75;nan;100939.66;5013206;28;20276;-78
2021/07/20 05:59:04;;;;;;;11.57;7.53;;;;;;;17.63;nan;100948.91;5014875;28;20061;-78
2021/07/20 06:01:34;;;;;;;12.27;8.02;;;;;;;17.57;nan;100942.84;5000592;28;20041;-78
2021/07/20 06:04:02;;;;;;;11.30;7.53;;;;;;;17.55;nan;100950.03;4998289;28;20056;-78
2021/07/20 06:06:28;;;;;;;11.10;7.70;;;;;;;17.56;nan;100958.00;5015304;28;20029;-78
2021/07/20 06:08:55;;;;;;;10.70;8.25;;;;;;;17.45;nan;100960.97;4998090;28;20049;-78
2021/07/20 06:11:22;;;;;;;14.23;8.93;;;;;;;17.43;nan;100954.78;5014342;28;20062;-78
2021/07/20 06:13:49;;;;;;;14.63;8.32;;;;;;;17.48;nan;100958.22;5011652;28;20057;-78
2021/07/20 06:16:14;;;;;;;13.75;8.73;;;;;;;17.42;nan;100958.41;5014913;28;20560;-78
2021/07/20 06:18:40;;;;;;;12.75;7.72;;;;;;;17.35;nan;100954.13;4996131;28;20102;-78
2021/07/20 06:21:09;;;;;;;11.85;8.13;;;;;;;17.39;nan;100965.59;4998662;28;20044;-78
2021/07/20 06:23:38;;;;;;;10.85;7.35;;;;;;;17.49;nan;100961.75;5013729;28;20127;-78
2021/07/20 06:26:05;;;;;;;11.77;8.55;;;;;;;17.46;nan;100956.50;5009386;28;20054;-78
2021/07/20 06:28:31;;;;;;;9.70;7.20;;;;;;;17.63;nan;100964.03;5009675;28;20125;-78
2021/07/20 06:30:58;;;;;;;12.85;7.75;;;;;;;17.73;nan;100965.50;5013716;28;20101;-78
2021/07/20 06:33:26;;;;;;;11.93;7.93;;;;;;;17.79;nan;100972.47;4995565;28;20038;-78
2021/07/20 06:35:52;;;;;;;11.02;8.13;;;;;;;17.84;nan;100967.91;4999109;28;20045;-78
2021/07/20 06:38:20;;;;;;;11.38;7.40;;;;;;;17.85;nan;100975.88;5014336;28;20030;-78
2021/07/20 06:40:51;;;;;;;10.75;7.60;;;;;;;18.12;nan;100973.31;5016368;28;20086;-78
2021/07/20 06:43:18;;;;;;;14.00;8.20;;;;;;;18.20;nan;100973.94;5001352;28;20068;-78
2021/07/20 06:45:46;;;;;;;10.35;7.60;;;;;;;18.35;nan;100970.78;5018305;28;20039;-78
2021/07/20 06:48:17;;;;;;;10.80;7.50;;;;;;;18.52;nan;100974.72;5000651;28;20477;-78
2021/07/20 06:50:43;;;;;;;8.68;7.75;;;;;;;18.59;nan;100973.63;5018729;28;20038;-78
2021/07/20 06:53:12;;;;;;;10.48;7.07;;;;;;;18.66;nan;100979.66;5019335;28;20030;-78
2021/07/20 06:55:45;;;;;;;9.90;7.80;;;;;;;18.45;nan;100976.72;5000370;28;20026;-78
2021/07/20 06:58:12;;;;;;;13.43;7.60;;;;;;;18.40;nan;100974.19;5018701;28;20037;-78
2021/07/20 07:00:38;;;;;;;11.93;7.65;;;;;;;18.36;nan;100977.88;5017984;28;20065;-77
2021/07/20 07:03:05;;;;;;;11.95;7.90;;;;;;;18.52;nan;100970.28;5001292;28;20041;-78
2021/07/20 07:05:31;;;;;;;10.48;8.35;;;;;;;18.69;nan;100972.38;5017526;28;20357;-78
2021/07/20 07:07:58;;;;;;;10.30;7.28;;;;;;;18.90;nan;100972.66;5001935;28;20045;-78
2021/07/20 07:10:24;;;;;;;11.13;7.40;;;;;;;19.19;nan;100969.84;5017231;28;20044;-78
2021/07/20 07:12:51;;;;;;;11.30;7.68;;;;;;;19.35;nan;100977.31;5002525;28;20049;-78
2021/07/20 07:15:18;;;;;;;11.55;7.18;;;;;;;19.53;nan;100979.34;5013225;28;20085;-78
2021/07/20 07:17:48;;;;;;;12.43;7.22;;;;;;;19.54;nan;100981.06;4999026;28;20034;-78
2021/07/20 07:20:16;;;;;;;8.90;6.50;;;;;;;19.64;nan;100977.13;4996212;28;20046;-78
2021/07/20 07:22:42;;;;;;;9.38;6.90;;;;;;;19.82;nan;100985.47;5019667;28;20034;-78
2021/07/20 07:25:09;;;;;;;11.07;7.15;;;;;;;20.01;nan;100978.47;5017672;28;20034;-78
2021/07/20 07:27:37;;;;;;;10.65;6.38;;;;;;;20.08;nan;100985.34;4999430;28;20038;-78
2021/07/20 07:30:03;;;;;;;9.73;6.00;;;;;;;20.07;nan;100978.25;5003150;28;20045;-78
2021/07/20 07:32:30;;;;;;;11.13;6.60;;;;;;;19.98;nan;100977.72;5018408;28;20046;-78
2021/07/20 07:34:55;;;;;;;10.18;6.30;;;;;;;20.18;nan;100979.66;5018468;28;20038;-78
2021/07/20 07:37:25;;;;;;;14.82;7.28;;;;;;;20.23;nan;100980.34;5001051;28;20545;-78
2021/07/20 07:39:53;;;;;;;11.52;7.68;;;;;;;20.27;nan;100987.31;5000574;28;20034;-78
2021/07/20 07:42:19;;;;;;;10.82;6.43;;;;;;;20.38;nan;100985.06;5018462;28;20037;-78
2021/07/20 07:44:48;;;;;;;10.40;6.10;;;;;;;20.41;nan;100984.97;4999448;28;20042;-78
2021/07/20 07:47:13;;;;;;;8.63;6.28;;;;;;;20.34;nan;100978.09;5019021;28;20406;-78
2021/07/20 07:49:39;;;;;;;10.38;6.40;;;;;;;20.40;nan;100977.84;4998573;28;20043;-79
2021/07/20 07:52:08;;;;;;;10.55;5.88;;;;;;;20.51;nan;100975.63;5000764;28;20038;-78
2021/07/20 07:54:34;;;;;;;10.27;5.90;;;;;;;20.45;nan;100973.19;4996252;28;20026;-78
2021/07/20 07:57:00;;;;;;;8.43;6.18;;;;;;;20.61;nan;100969.91;5000735;28;20360;-78
2021/07/20 07:59:27;;;;;;;8.02;5.32;;;;;;;20.73;nan;100972.09;5017146;28;20045;-78
2021/07/20 08:01:54;;;;;;;10.70;5.93;;;;;;;20.64;nan;100973.34;5001093;28;20038;-78
2021/07/20 08:04:22;;;;;;;7.68;5.40;;;;;;;20.71;nan;100972.16;5017179;28;20137;-78
2021/07/20 08:06:49;;;;;;;7.07;4.72;;;;;;;20.95;nan;100969.38;5017674;28;20472;-78
2021/07/20 08:09:17;;;;;;;8.13;5.35;;;;;;;20.85;nan;100973.38;5017171;28;20034;-79
2021/07/20 08:11:45;;;;;;;8.38;5.25;;;;;;;21.24;nan;100973.50;5017119;28;20130;-78
2021/07/20 08:14:12;;;;;;;9.40;5.35;;;;;;;21.43;nan;100963.75;5017782;28;20037;-79
2021/07/20 08:16:43;;;;;;;7.57;5.07;;;;;;;21.66;nan;100968.06;5007797;28;20041;-79
2021/07/20 08:19:10;;;;;;;8.05;5.20;;;;;;;21.87;nan;100970.72;5011137;28;20033;-79
2021/07/20 08:21:35;;;;;;;6.75;3.90;;;;;;;21.92;nan;100966.00;5007855;28;20093;-78
2021/07/20 08:24:01;;;;;;;6.88;3.85;;;;;;;22.05;nan;100963.63;4994005;28;20034;-78
2021/07/20 08:26:31;;;;;;;4.72;3.60;;;;;;;22.28;nan;100966.13;5009484;28;20382;-78
2021/07/20 08:29:14;;;;;;;7.07;3.60;;;;;;;22.38;nan;100966.56;4997448;28;20041;-78
2021/07/20 08:31:43;;;;;;;6.35;4.10;;;;;;;22.41;nan;100965.53;4998815;28;20034;-78
2021/07/20 08:34:11;;;;;;;6.45;3.80;;;;;;;22.26;nan;100965.31;4999024;28;20044;-79
2021/07/20 08:36:39;;;;;;;6.03;3.35;;;;;;;22.15;nan;100961.38;4997641;28;20101;-79
2021/07/20 08:39:08;;;;;;;5.47;3.25;;;;;;;21.99;nan;100958.53;4997997;28;20038;-79
2021/07/20 08:41:59;;;;;;;8.57;4.10;;;;;;;21.75;nan;100963.25;5016032;28;20061;-78
2021/07/20 08:44:40;;;;;;;6.47;3.70;;;;;;;21.88;nan;100957.22;4994633;28;20110;-79
2021/07/20 08:47:22;;;;;;;5.60;3.67;;;;;;;22.07;nan;100959.91;5014787;28;20496;-78
2021/07/20 08:50:02;;;;;;;9.43;3.80;;;;;;;22.00;nan;100962.97;4976470;28;20397;-79
2021/07/20 08:52:41;;;;;;;5.53;3.78;;;;;;;21.87;nan;100960.81;5015692;28;20403;-79
2021/07/20 08:55:12;;;;;;;8.30;3.47;;;;;;;21.78;nan;100955.91;5016982;28;20048;-79
2021/07/20 08:57:58;;;;;;;5.40;2.88;;;;;;;21.64;nan;100961.00;5013990;28;20037;-78
2021/07/20 09:00:36;;;;;;;6.57;3.25;;;;;;;21.60;nan;100962.97;5012371;28;20041;-78
2021/07/20 09:03:17;;;;;;;5.80;3.28;;;;;;;21.49;nan;100959.03;4996794;28;20041;-78
2021/07/20 09:05:53;;;;;;;5.10;3.27;;;;;;;21.44;nan;100959.25;5009507;28;20058;-78
2021/07/20 09:08:40;;;;;;;7.43;3.30;;;;;;;21.64;nan;100963.69;5015931;28;20303;-79
2021/07/20 09:11:11;;;;;;;7.60;3.35;;;;;;;21.44;nan;100961.94;5017534;28;20041;-79
2021/07/20 09:13:40;;;;;;;5.97;3.55;;;;;;;21.41;nan;100967.44;5009257;28;20030;-79
2021/07/20 09:16:11;;;;;;;6.40;3.78;;;;;;;21.16;nan;100964.91;5007308;28;20039;-79
2021/07/20 09:18:47;;;;;;;6.00;3.85;;;;;;;21.21;nan;100961.09;5009255;28;20042;-79
2021/07/20 09:21:14;;;;;;;6.53;3.95;;;;;;;21.09;nan;100960.72;5009462;28;20110;-78
2021/07/20 09:23:48;;;;;;;8.40;4.43;;;;;;;21.09;nan;100966.09;5014847;28;20030;-78
2021/07/20 09:26:24;;;;;;;6.38;3.88;;;;;;;20.94;nan;100968.53;5011568;28;20102;-79
2021/07/20 09:29:01;;;;;;;7.47;5.25;;;;;;;20.71;nan;100963.25;5010834;28;20042;-79
2021/07/20 09:32:01;;;;;;;7.68;4.07;;;;;;;20.76;nan;100963.94;4994988;28;20042;-79
2021/07/20 09:35:04;;;;;;;6.53;4.03;;;;;;;20.90;nan;100961.53;5015159;28;20034;-79
2021/07/20 09:37:56;;;;;;;6.05;4.07;;;;;;;20.95;nan;100964.88;4967122;28;20049;-78
2021/07/20 09:40:48;;;;;;;7.18;4.18;;;;;;;21.01;nan;100959.28;5013268;28;20026;-79
2021/07/20 09:43:32;;;;;;;;;;;;;;;21.24;nan;100960.06;5007224;28;20037;-78
2021/07/20 09:46:03;;;;;;;7.95;4.43;;;;;;;21.52;nan;100965.13;4974254;28;19920;-79
2021/07/20 09:48:41;;;;;;;;;;;;;;;21.54;nan;100960.56;5008066;28;20038;-79
2021/07/20 09:51:35;;;;;;;7.80;3.80;;;;;;;21.57;nan;100964.94;5000084;28;19913;-79
2021/07/20 09:54:09;;;;;;;10.27;4.22;;;;;;;21.84;nan;100960.09;5015181;28;20038;-79
2021/07/20 09:56:42;;;;;;;6.85;4.07;;;;;;;22.09;nan;100962.53;5019360;28;20044;-78
2021/07/20 09:59:31;;;;;;;5.95;3.58;;;;;;;22.20;nan;100954.00;4992870;28;20062;-79
2021/07/20 10:02:00;;;;;;;5.72;3.90;;;;;;;22.17;nan;100954.97;4997735;28;20038;-78
2021/07/20 10:04:40;;;;;;;6.78;3.78;;;;;;;22.05;nan;100950.19;4994235;28;20364;-78
2021/07/20 10:07:05;;;;;;;6.45;3.60;;;;;;;22.35;nan;100949.66;5012971;28;20052;-78
2021/07/20 10:09:45;;;;;;;6.97;3.50;;;;;;;22.20;nan;100951.31;5008514;28;20109;-78
2021/07/20 10:12:21;;;;;;;6.22;3.38;;;;;;;22.19;nan;100947.75;4967966;28;20089;-79
2021/07/20 10:15:06;;;;;;;8.10;3.85;;;;;;;22.16;nan;100950.53;5008717;28;20069;-79
2021/07/20 10:17:37;;;;;;;8.75;3.53;;;;;;;21.99;nan;100947.78;5012136;28;20034;-78
2021/07/20 10:20:13;;;;;;;7.47;4.00;;;;;;;22.22;nan;100944.03;4998513;28;20042;-79
2021/07/20 10:22:46;;;;;;;6.22;3.58;;;;;;;22.35;nan;100949.66;5010613;28;20037;-78
2021/07/20 10:25:56;;;;;;;8.40;3.55;;;;;;;22.45;nan;100950.97;4969134;28;20412;-78
2021/07/20 10:28:30;;;;;;;7.18;3.75;;;;;;;22.25;nan;100950.13;4867274;29;20048;-78
2021/07/20 10:31:05;;;;;;;7.10;3.60;;;;;;;22.32;nan;100945.31;4884085;29;20108;-78
2021/07/20 10:33:38;;;;;;;6.38;3.40;;;;;;;22.41;nan;100952.94;4955744;28;20061;-78
2021/07/20 10:36:20;;;;;;;6.78;3.83;;;;;;;22.64;nan;100954.50;5010802;28;20046;-79
2021/07/20 10:38:51;;;;;;;5.03;3.85;;;;;;;22.93;nan;100962.94;5006685;28;20122;-79
2021/07/20 10:41:22;;;;;;;5.22;3.42;;;;;;;22.83;nan;100958.97;5013932;28;20040;-79
2021/07/20 10:44:13;;;;;;;5.07;3.42;;;;;;;22.75;nan;100953.97;4986658;28;20382;-78
2021/07/20 10:46:39;;;;;;;6.20;3.30;;;;;;;22.78;nan;100955.63;5001760;28;20074;-78
2021/07/20 10:49:33;;;;;;;8.38;3.70;;;;;;;22.93;nan;100949.50;5006000;28;20049;-78
2021/07/20 10:52:10;;;;;;;5.15;3.35;;;;;;;22.65;nan;100948.16;4994134;28;20038;-78
2021/07/20 10:54:46;;;;;;;8.48;3.80;;;;;;;22.94;nan;100949.38;5006130;28;20077;-77
2021/07/20 10:57:20;;;;;;;6.80;3.85;;;;;;;22.75;nan;100954.84;4976914;28;20035;-78
2021/07/20 11:00:10;;;;;;;5.70;3.20;;;;;;;22.56;nan;100956.72;4994974;28;20515;-78
2021/07/20 11:03:03;;;;;;;7.82;3.67;;;;;;;22.48;nan;100949.03;5006315;28;20050;-78
2021/07/20 11:05:30;;;;;;;6.07;3.42;;;;;;;22.34;nan;100953.31;5010018;28;20043;-78
2021/07/20 11:08:07;;;;;;;6.65;3.45;;;;;;;22.29;nan;100957.09;5012432;28;20077;-78
2021/07/20 11:10:55;;;;;;;5.72;3.30;;;;;;;22.33;nan;100951.59;5007681;28;20031;-78
2021/07/20 11:13:33;;;;;;;5.68;3.28;;;;;;;22.45;nan;100950.97;5011323;28;20054;-79
2021/07/20 11:16:03;;;;;;;7.10;3.67;;;;;;;22.64;nan;100957.19;5006339;28;20129;-78
2021/07/20 11:18:36;;;;;;;7.45;3.60;;;;;;;22.87;nan;100957.84;5006880;28;20066;-78
2021/07/20 11:21:04;;;;;;;7.63;3.15;;;;;;;23.07;nan;100949.66;5012285;28;20076;-78
2021/07/20 11:23:40;;;;;;;5.10;3.17;;;;;;;23.17;nan;100955.47;5010789;28;20031;-78
2021/07/20 11:26:06;;;;;;;6.18;3.38;;;;;;;23.35;nan;100942.84;5012826;28;20038;-78
2021/07/20 11:28:32;;;;;;;5.72;3.25;;;;;;;23.31;nan;100941.25;4997326;28;20081;-78
2021/07/20 11:31:02;;;;;;;5.40;3.05;;;;;;;23.46;nan;100940.44;4993926;28;20077;-79
2021/07/20 11:33:38;;;;;;;6.07;3.22;;;;;;;23.43;nan;100935.22;5017795;28;20068;-78
2021/07/20 11:36:05;;;;;;;6.30;3.63;;;;;;;23.62;nan;100946.75;5016113;28;20052;-79
2021/07/20 11:38:35;;;;;;;5.30;3.53;;;;;;;23.86;nan;100941.00;5016832;28;20033;-78
2021/07/20 11:41:28;;;;;;;7.30;2.97;;;;;;;24.11;nan;100947.75;5015532;28;20125;-78
2021/07/20 11:44:08;;;;;;;5.72;3.35;;;;;;;23.92;nan;100929.91;5012161;28;20030;-78
2021/07/20 11:46:58;;;;;;;6.70;3.22;;;;;;;23.95;nan;100945.91;5015882;28;20045;-78
2021/07/20 11:49:34;;;;;;;5.15;3.17;;;;;;;23.68;nan;100939.28;5012668;28;20065;-78
2021/07/20 11:52:09;;;;;;;5.53;3.63;;;;;;;23.70;nan;100937.38;4998580;28;20025;-79
2021/07/20 11:55:04;;;;;;;5.47;3.30;;;;;;;23.65;nan;100934.06;5015320;28;20046;-78
2021/07/20 11:57:57;;;;;;;6.95;3.65;;;;;;;23.59;nan;100938.84;5012508;28;20450;-78
2021/07/20 12:00:29;;;;;;;5.70;3.30;;;;;;;23.84;nan;100938.41;5015586;28;20452;-78
2021/07/20 12:03:26;;;;;;;7.38;3.30;;;;;;;23.90;nan;100939.03;5014982;28;20042;-79
2021/07/20 12:06:19;;;;;;;5.53;3.30;;;;;;;24.14;nan;100936.78;4999974;28;20469;-79